createdAt,value
2022-09-04T00:04:18.960Z,9.0
2022-09-04T00:09:25.012Z,9.0
2022-09-04T00:14:30.251Z,8.5
2022-09-04T00:19:36.467Z,9.0
2022-09-04T00:24:41.697Z,9.0
2022-09-04T00:29:47.903Z,8.0
2022-09-04T00:34:54.120Z,8.0
2022-09-04T00:40:00.430Z,8.0
2022-09-04T00:45:06.530Z,8.0
2022-09-04T00:50:12.740Z,8.0
2022-09-04T00:55:18.945Z,8.0
2022-09-04T01:00:25.153Z,8.0
2022-09-04T01:05:31.366Z,9.0
2022-09-04T01:10:37.573Z,8.0
2022-09-04T01:15:43.776Z,9.0
2022-09-04T01:20:49.988Z,8.0
2022-09-04T01:25:56.191Z,9.0
2022-09-04T01:31:02.414Z,8.5
2022-09-04T01:36:08.607Z,10.0
2022-09-04T01:41:14.818Z,9.0
2022-09-04T01:46:21.027Z,9.0
2022-09-04T01:51:27.233Z,9.0
2022-09-04T01:56:33.446Z,10.0
2022-09-04T02:01:39.655Z,9.0
2022-09-04T02:06:45.860Z,9.0
2022-09-04T02:11:51.095Z,9.0
2022-09-04T02:16:57.314Z,9.5
2022-09-04T02:22:02.541Z,10.0
2022-09-04T02:27:08.748Z,10.0
2022-09-04T02:32:14.954Z,10.0
2022-09-04T02:37:21.167Z,10.0
2022-09-04T02:42:27.376Z,11.0
2022-09-04T02:47:33.580Z,11.0
2022-09-04T02:52:39.788Z,11.0
2022-09-04T02:57:45.995Z,11.0
2022-09-04T03:02:52.207Z,11.0
2022-09-04T03:07:58.415Z,11.0
2022-09-04T03:13:04.620Z,11.0
2022-09-04T03:18:16.279Z,11.0
2022-09-04T03:23:17.060Z,11.0
2022-09-04T03:28:23.337Z,10.0
2022-09-04T03:33:29.453Z,11.0
2022-09-04T03:38:35.661Z,11.0
2022-09-04T03:43:41.871Z,10.0
2022-09-04T03:48:48.079Z,10.0
2022-09-04T03:53:54.293Z,12.0
2022-09-04T03:59:00.495Z,12.0
2022-09-04T04:04:06.700Z,12.0
2022-09-04T04:09:12.010Z,11.0
2022-09-04T04:14:18.147Z,11.0
2022-09-04T04:19:23.379Z,12.0
2022-09-04T04:24:29.591Z,11.0
2022-09-04T04:29:35.796Z,11.0
2022-09-04T04:34:42.006Z,12.0
2022-09-04T04:39:48.278Z,12.0
2022-09-04T04:44:54.423Z,11.0
2022-09-04T04:50:00.631Z,11.0
2022-09-04T04:55:06.838Z,11.0
2022-09-04T05:00:13.047Z,11.0
2022-09-04T05:10:25.476Z,13.0
2022-09-04T05:15:31.670Z,12.0
2022-09-04T05:20:37.881Z,12.0
2022-09-04T05:25:44.087Z,12.0
2022-09-04T05:30:50.328Z,13.0
2022-09-04T05:35:56.506Z,13.0
2022-09-04T05:41:02.709Z,14.0
2022-09-04T05:46:08.962Z,14.0
2022-09-04T05:51:15.126Z,15.0
2022-09-04T05:56:21.341Z,15.0
2022-09-04T06:01:27.576Z,14.0
2022-09-04T06:06:33.768Z,15.5
2022-09-04T06:11:38.988Z,17.0
2022-09-04T06:16:45.200Z,20.0
2022-09-04T06:21:51.402Z,23.0
2022-09-04T06:26:57.616Z,21.0
2022-09-04T06:32:03.821Z,18.5
2022-09-04T06:37:10.037Z,19.0
2022-09-04T06:42:16.237Z,19.0
2022-09-04T06:47:22.450Z,18.0
2022-09-04T06:52:28.657Z,18.0
2022-09-04T06:57:34.857Z,18.0
2022-09-04T07:02:41.228Z,19.0
2022-09-04T07:07:47.280Z,17.0
2022-09-04T07:12:53.486Z,16.0
2022-09-04T07:18:01.489Z,15.5
2022-09-04T07:23:05.907Z,14.5
2022-09-04T07:28:12.112Z,14.0
2022-09-04T07:33:18.326Z,13.0
2022-09-04T07:38:24.613Z,12.0
2022-09-04T07:43:30.736Z,12.0
2022-09-04T07:48:36.963Z,12.0
2022-09-04T07:53:43.158Z,12.0
2022-09-04T07:58:48.397Z,11.5
2022-09-04T08:03:54.930Z,11.0
2022-09-04T08:09:00.814Z,10.0
2022-09-04T08:14:07.022Z,10.0
2022-09-04T08:19:12.254Z,13.0
2022-09-04T08:24:18.460Z,12.0
2022-09-04T08:29:24.666Z,11.0
2022-09-04T08:34:30.876Z,12.0
2022-09-04T08:39:37.182Z,12.0
2022-09-04T08:44:43.294Z,10.0
2022-09-04T08:49:49.509Z,8.5
2022-09-04T08:54:55.713Z,9.0
2022-09-04T09:00:01.937Z,9.0
2022-09-04T09:05:08.134Z,10.0
2022-09-04T09:10:14.343Z,8.0
2022-09-04T09:15:20.556Z,10.0
2022-09-04T09:20:26.767Z,10.0
2022-09-04T09:25:32.980Z,9.0
2022-09-04T09:30:39.289Z,9.0
2022-09-04T09:35:45.411Z,7.0
2022-09-04T09:40:51.636Z,6.0
2022-09-04T09:45:56.931Z,6.0
2022-09-04T09:51:03.095Z,8.0
2022-09-04T09:56:09.309Z,6.0
2022-09-04T10:01:15.543Z,5.0
2022-09-04T10:06:21.743Z,4.0
2022-09-04T10:11:27.963Z,5.0
2022-09-04T10:16:34.305Z,4.0
2022-09-04T10:21:40.398Z,5.0
2022-09-04T10:26:46.618Z,5.0
2022-09-04T10:31:52.847Z,6.0
2022-09-04T10:36:59.068Z,5.0
2022-09-04T10:42:05.284Z,5.0
2022-09-04T10:47:11.503Z,4.0
2022-09-04T10:52:17.721Z,4.0
2022-09-04T10:57:23.935Z,4.0
2022-09-04T11:02:30.200Z,3.0
2022-09-04T11:07:36.379Z,4.0
2022-09-04T11:12:42.592Z,3.0
2022-09-04T11:17:48.812Z,2.0
2022-09-04T11:22:55.036Z,2.0
2022-09-04T11:28:01.254Z,2.0
2022-09-04T11:33:07.475Z,2.0
2022-09-04T11:38:13.696Z,2.0
2022-09-04T11:43:19.977Z,2.0
2022-09-04T11:48:26.134Z,2.0
2022-09-04T11:53:32.360Z,2.0
2022-09-04T11:58:38.572Z,2.0
2022-09-04T12:03:44.871Z,2.0
2022-09-04T12:08:51.018Z,2.0
2022-09-04T12:13:57.236Z,2.0
2022-09-04T12:19:03.451Z,2.0
2022-09-04T12:24:09.696Z,1.0
2022-09-04T12:29:15.892Z,1.0
2022-09-04T12:34:22.111Z,1.0
2022-09-04T12:39:28.367Z,1.0
2022-09-04T12:44:34.558Z,1.0
2022-09-04T12:49:40.762Z,2.0
2022-09-04T12:54:46.984Z,1.0
2022-09-04T12:59:53.200Z,1.0
2022-09-04T13:04:59.418Z,2.0
2022-09-04T13:10:05.640Z,2.0
2022-09-04T13:15:11.851Z,2.0
2022-09-04T13:20:18.063Z,2.0
2022-09-04T13:25:24.275Z,2.0
2022-09-04T13:30:30.490Z,2.0
2022-09-04T13:35:36.750Z,2.0
2022-09-04T13:40:42.915Z,2.0
2022-09-04T13:45:49.131Z,2.0
2022-09-04T13:50:55.333Z,2.0
2022-09-04T13:56:01.571Z,2.0
2022-09-04T14:01:07.894Z,2.0
2022-09-04T14:06:13.968Z,2.0
2022-09-04T14:11:20.177Z,2.0
2022-09-04T14:16:26.411Z,2.0
2022-09-04T14:21:32.605Z,2.0
2022-09-04T14:26:38.850Z,2.0
2022-09-04T14:32:06.815Z,2.0
2022-09-04T14:36:51.234Z,1.5
2022-09-04T14:41:57.439Z,1.0
2022-09-04T14:47:03.707Z,1.0
2022-09-04T14:52:09.861Z,1.0
2022-09-04T14:57:16.070Z,1.0
2022-09-04T15:02:22.285Z,1.0
2022-09-04T15:07:28.497Z,1.0
2022-09-04T15:12:34.704Z,2.0
2022-09-04T15:17:39.937Z,2.0
2022-09-04T15:22:46.138Z,2.0
2022-09-04T15:27:52.350Z,1.0
2022-09-04T15:32:58.574Z,1.0
2022-09-04T15:38:04.771Z,1.0
2022-09-04T15:43:10.980Z,1.0
2022-09-04T15:48:17.191Z,1.0
2022-09-04T15:53:26.912Z,1.0
2022-09-04T15:58:29.613Z,1.0
2022-09-04T16:03:35.829Z,2.0
2022-09-04T16:08:42.038Z,2.0
2022-09-04T16:13:48.247Z,46.0
2022-09-04T16:18:54.457Z,18.0
2022-09-04T16:24:00.671Z,3.0
2022-09-04T16:29:06.879Z,3.0
2022-09-04T16:34:13.090Z,2.0
2022-09-04T16:39:19.304Z,8.0
2022-09-04T16:44:26.440Z,2.0
2022-09-04T16:49:31.722Z,2.0
2022-09-04T16:54:37.928Z,1.0
2022-09-04T16:59:46.206Z,2.0
2022-09-04T17:04:50.363Z,1.0
2022-09-04T17:09:56.664Z,1.0
2022-09-04T17:15:02.789Z,2.0
2022-09-04T17:20:09.009Z,2.0
2022-09-04T17:29:02.941Z,4.0
2022-09-04T17:30:28.921Z,1.0
2022-09-04T17:39:41.094Z,1.0
2022-09-04T17:41:30.002Z,1.0
2022-09-04T17:45:40.102Z,1.0
2022-09-04T17:50:46.292Z,1.0
2022-09-04T17:55:52.504Z,1.0
2022-09-04T18:01:15.427Z,1.0
2022-09-04T18:06:04.947Z,1.0
2022-09-04T18:11:11.179Z,1.0
2022-09-04T18:16:17.485Z,1.0
2022-09-04T18:21:23.612Z,1.0
2022-09-04T18:26:39.896Z,1.0
2022-09-04T18:37:09.343Z,2.0
2022-09-04T18:37:25.133Z,2.0
2022-09-04T18:47:41.669Z,2.0
2022-09-04T18:50:30.861Z,2.0
2022-09-04T18:52:00.956Z,2.0
2022-09-04T18:57:07.147Z,2.0
2022-09-04T19:02:13.425Z,2.0
2022-09-04T19:07:19.548Z,2.0
2022-09-04T19:12:35.674Z,2.0
2022-09-04T19:17:31.967Z,2.0
2022-09-04T19:22:38.173Z,2.0
2022-09-04T19:27:44.381Z,2.0
2022-09-04T19:32:50.593Z,3.0
2022-09-04T19:41:00.227Z,3.0
2022-09-04T19:46:03.963Z,2.0
2022-09-04T19:48:09.315Z,3.0
2022-09-04T19:53:38.816Z,3.0
2022-09-04T19:58:21.634Z,3.0
2022-09-04T20:03:29.542Z,3.0
2022-09-04T20:08:34.051Z,4.0
2022-09-04T20:13:40.261Z,3.0
2022-09-04T20:18:46.472Z,3.0
2022-09-04T20:23:52.711Z,3.0
2022-09-04T20:28:58.903Z,3.0
2022-09-04T20:34:05.098Z,4.0
2022-09-04T20:39:11.304Z,4.0
2022-09-04T20:44:17.512Z,3.0
2022-09-04T20:52:54.738Z,4.0
2022-09-04T20:54:29.278Z,4.0
2022-09-04T21:03:12.661Z,4.0
2022-09-04T21:04:43.138Z,4.0
2022-09-04T21:09:53.383Z,3.0
2022-09-04T21:14:53.774Z,4.0
2022-09-04T21:19:59.987Z,5.0
2022-09-04T21:25:06.194Z,4.0
2022-09-04T21:30:12.401Z,5.0
2022-09-04T21:35:18.612Z,5.0
2022-09-04T21:40:49.652Z,4.0
2022-09-04T21:45:31.031Z,5.0
2022-09-04T21:50:37.238Z,5.0
2022-09-04T21:59:22.697Z,5.0
2022-09-04T22:02:44.245Z,5.0
2022-09-04T22:05:58.190Z,6.0
2022-09-04T22:13:34.041Z,5.0
2022-09-04T22:16:08.346Z,5.0
2022-09-04T22:21:14.484Z,5.0
2022-09-04T22:26:24.256Z,5.0
2022-09-04T22:31:26.955Z,5.0
2022-09-04T22:36:33.117Z,6.0
2022-09-04T22:41:39.320Z,5.0
2022-09-04T22:46:45.579Z,5.0
2022-09-04T22:51:51.749Z,5.0
2022-09-04T22:56:57.948Z,5.0
2022-09-04T23:02:13.635Z,5.0
2022-09-04T23:11:40.024Z,5.0
2022-09-04T23:13:49.835Z,4.0
2022-09-04T23:17:22.776Z,5.0
2022-09-04T23:26:43.056Z,4.0
2022-09-04T23:27:35.199Z,4.0
2022-09-04T23:32:41.403Z,4.0
2022-09-04T23:38:00.091Z,5.0
2022-09-04T23:42:53.821Z,5.0
2022-09-04T23:48:00.032Z,5.0
2022-09-04T23:53:06.240Z,5.5
2022-09-04T23:58:12.449Z,5.0
